Antwerp, New York
Current Conditions -  °F | °C
As of 7:18 PM on Wednesday 26 Nov 2014 (Local Time) from KGTB Reporting Station
Light Snow Light Snow  
Wind Chill: 18°   Ceiling: 1400
Heat Index: 27°   Visibility: 2.5mi
Dew Point: 25°   Wind: 8mph
Humidity: 93%   Direction: 30°NNE
Pressure: 30.06"   Gusts: NA
Location:  44.2°N, 75.61°W
Report Text: KGTB 270018Z AUTO 03007KT 2 1/2SM -SN BR SCT007 OVC014 M03/M04 A3006 RMK AO2 VIS 2 1/2V3 CIG 007 RWY03
Loading
Personal Weather Stations






























Interactive Weather Map New forecast layout! Learn more

10-Day Weather Forecast

Advertisements
Track Severe Weather on mobile